Time;durP1;ratioP1;P1;durP2;ratioP2;P2;SDS_P1;SDS_P2;PMS_P1;PMS_P2;Temp;Humidity;BMP_temperature;BMP_pressure;BME280_temperature;BME280_humidity;BME280_pressure;Samples;Min_cycle;Max_cycle;Signal;HPM_P1;HPM_P2
2021/12/15 00:01:22;;;;;;;9.52;6.78;;;;;;;5.95;88.98;100080.63;6165461;23;20004;-85
2021/12/15 00:03:48;;;;;;;10.18;7.43;;;;;;;5.91;89.04;100081.19;6177217;23;20313;-86
2021/12/15 00:06:18;;;;;;;11.00;7.95;;;;;;;5.92;88.72;100070.41;6203058;23;20004;-85
2021/12/15 00:08:51;;;;;;;9.68;6.60;;;;;;;5.76;89.03;100051.25;6206018;23;20009;-84
2021/12/15 00:11:18;;;;;;;10.35;6.93;;;;;;;5.92;89.19;100075.69;6206364;23;20015;-85
2021/12/15 00:13:46;;;;;;;7.75;6.53;;;;;;;5.91;89.27;100079.38;6154269;23;20032;-85
2021/12/15 00:16:14;;;;;;;10.40;6.95;;;;;;;5.90;89.18;100074.25;6203658;23;20012;-84
2021/12/15 00:18:41;;;;;;;8.68;6.43;;;;;;;5.92;89.37;100075.69;6177972;23;20092;-83
2021/12/15 00:21:09;;;;;;;8.18;6.10;;;;;;;5.72;88.98;100057.94;6201001;23;20008;-83
2021/12/15 00:23:36;;;;;;;8.27;5.60;;;;;;;5.90;89.44;100080.38;6228188;23;20012;-84
2021/12/15 00:26:02;;;;;;;6.68;5.10;;;;;;;5.91;89.49;100073.25;6150715;23;20086;-84
2021/12/15 00:28:28;;;;;;;10.40;6.15;;;;;;;5.87;89.95;100064.88;6199335;23;20012;-84
2021/12/15 00:30:54;;;;;;;7.15;5.63;;;;;;;5.82;89.33;100059.28;6199760;23;20505;-83
2021/12/15 00:33:19;;;;;;;7.18;5.38;;;;;;;5.92;89.73;100070.41;6175945;23;20080;-83
2021/12/15 00:35:45;;;;;;;9.15;5.68;;;;;;;5.94;89.58;100071.03;6198516;23;20012;-81
2021/12/15 00:38:10;;;;;;;8.77;6.10;;;;;;;5.95;88.89;100074.50;6174409;23;20008;-81
2021/12/15 00:40:36;;;;;;;7.80;6.05;;;;;;;5.95;89.49;100069.22;6172005;23;20015;-81
2021/12/15 00:43:03;;;;;;;6.70;5.40;;;;;;;5.96;89.57;100062.91;6195512;23;20008;-81
2021/12/15 00:45:29;;;;;;;5.53;5.00;;;;;;;5.94;89.08;100072.88;6196069;23;20009;-81
2021/12/15 00:47:56;;;;;;;7.32;5.72;;;;;;;5.90;89.51;100061.81;6223595;23;20057;-81
2021/12/15 00:50:25;;;;;;;8.10;5.60;;;;;;;5.96;89.46;100070.88;6171150;23;20020;-81
2021/12/15 00:52:52;;;;;;;8.25;6.13;;;;;;;5.84;89.18;100051.16;6197165;23;20043;-81
2021/12/15 00:55:21;;;;;;;8.43;5.55;;;;;;;5.96;89.35;100076.16;6197224;23;20284;-82
2021/12/15 00:57:46;;;;;;;7.20;5.43;;;;;;;5.79;89.86;100040.25;6146433;23;20012;-81
2021/12/15 01:00:50;;;;;;;8.23;5.57;;;;;;;5.89;89.18;100065.50;6196914;23;20016;-81
2021/12/15 01:04:09;;;;;;;8.10;5.72;;;;;;;5.92;89.61;100073.06;6141983;23;20020;-80
2021/12/15 01:19:54;;;;;;;9.45;6.72;;;;;;;5.86;89.88;100073.81;6195195;23;20054;-83
2021/12/15 01:22:48;;;;;;;9.38;6.45;;;;;;;5.71;89.75;100045.69;6234041;23;20005;-84
2021/12/15 01:25:19;;;;;;;7.88;6.68;;;;;;;5.52;89.81;100018.00;6180442;23;20009;-84
2021/12/15 01:27:45;;;;;;;8.88;6.50;;;;;;;5.50;89.35;100012.06;6181765;23;20317;-81
2021/12/15 01:30:15;;;;;;;8.80;6.60;;;;;;;5.49;89.90;100007.78;6232445;23;20035;-81
2021/12/15 01:32:42;;;;;;;8.82;6.80;;;;;;;5.52;89.05;100012.72;6180887;23;20012;-81
2021/12/15 01:35:09;;;;;;;9.38;6.80;;;;;;;5.52;89.49;100020.66;6231861;23;20000;-81
2021/12/15 01:37:35;;;;;;;11.18;6.90;;;;;;;5.40;89.79;99994.81;6206758;23;20087;-82
2021/12/15 01:40:00;;;;;;;10.32;6.80;;;;;;;5.94;89.45;100081.63;6206058;23;20012;-81
2021/12/15 01:42:30;;;;;;;8.63;6.53;;;;;;;5.52;89.05;100012.72;6231940;23;20008;-82
2021/12/15 01:47:41;;;;;;;11.45;7.70;;;;;;;5.77;89.13;100060.81;6233289;23;20231;-82
2021/12/15 01:50:09;;;;;;;11.02;7.75;;;;;;;5.40;88.96;99998.31;6208698;23;20008;-82
2021/12/15 01:52:39;;;;;;;9.13;7.10;;;;;;;5.60;89.64;100031.13;6185350;23;20008;-82
2021/12/15 01:55:10;;;;;;;11.05;7.82;;;;;;;5.61;89.62;100032.78;6211390;23;20012;-82
2021/12/15 01:57:37;;;;;;;9.25;7.78;;;;;;;5.76;90.14;100064.50;6235339;23;20035;-82
2021/12/15 02:00:26;;;;;;;11.85;8.57;;;;;;;5.52;89.94;100012.72;6185840;23;20008;-82
2021/12/15 02:02:52;;;;;;;10.13;7.85;;;;;;;5.54;90.22;100008.03;6185056;23;20043;-82
2021/12/15 02:05:18;;;;;;;10.90;9.63;;;;;;;5.58;90.20;100024.38;6184205;23;20011;-82
2021/12/15 02:07:47;;;;;;;9.30;7.30;;;;;;;5.59;89.65;100023.38;6157468;23;20064;-83
2021/12/15 02:10:14;;;;;;;12.40;8.68;;;;;;;5.65;89.42;100033.22;6209084;23;20009;-83
2021/12/15 02:12:42;;;;;;;11.50;9.00;;;;;;;5.58;89.49;100027.00;6185350;23;20008;-82
2021/12/15 02:15:24;;;;;;;13.27;9.32;;;;;;;5.62;89.48;100031.75;6185480;23;20032;-84
2021/12/15 02:17:50;;;;;;;10.82;8.25;;;;;;;5.78;89.29;100058.00;6181419;23;20044;-85
2021/12/15 02:20:18;;;;;;;11.07;9.18;;;;;;;5.51;89.45;100015.53;6187654;23;20020;-85
2021/12/15 02:22:44;;;;;;;11.38;8.75;;;;;;;5.98;89.65;100085.53;6241299;23;20079;-85
2021/12/15 02:25:13;;;;;;;15.55;9.65;;;;;;;5.71;89.81;100049.16;6191084;23;19999;-85
2021/12/15 02:27:40;;;;;;;10.07;8.27;;;;;;;5.83;89.78;100065.41;6216255;23;19992;-85
2021/12/15 02:30:46;;;;;;;14.27;10.07;;;;;;;6.01;89.96;100092.28;6214797;23;20027;-83
2021/12/15 02:38:40;;;;;;;14.77;10.15;;;;;;;5.68;89.39;100043.44;6213448;23;20019;-82
2021/12/15 02:41:13;;;;;;;13.88;9.90;;;;;;;5.57;89.77;100031.47;6162672;23;20009;-82
2021/12/15 02:43:39;;;;;;;14.15;9.13;;;;;;;5.61;90.01;100026.66;6208760;23;20000;-84
2021/12/15 02:46:06;;;;;;;13.85;10.75;;;;;;;6.00;89.85;100102.09;6211637;23;20012;-84
2021/12/15 02:48:32;;;;;;;13.20;10.10;;;;;;;6.00;89.74;100096.81;6203644;23;20012;-84
2021/12/15 02:50:58;;;;;;;15.40;10.95;;;;;;;5.62;89.30;100038.88;6174757;23;20078;-84
2021/12/15 02:53:24;;;;;;;15.65;11.35;;;;;;;5.59;89.28;100031.31;6197907;23;20740;-84
2021/12/15 02:55:50;;;;;;;13.82;9.98;;;;;;;5.63;89.52;100033.41;6199538;23;20313;-84
2021/12/15 02:58:31;;;;;;;13.82;10.23;;;;;;;5.97;89.47;100096.34;6200482;23;20011;-84
2021/12/15 03:01:19;;;;;;;12.63;10.10;;;;;;;5.56;89.57;100031.69;6198762;23;20015;-86
2021/12/15 03:06:24;;;;;;;16.42;10.65;;;;;;;6.01;89.12;100103.72;6231357;23;20019;-85
2021/12/15 03:17:27;;;;;;;14.27;11.02;;;;;;;5.45;89.36;100010.97;6205655;23;20043;-84
2021/12/15 03:19:55;;;;;;;16.92;11.02;;;;;;;5.85;89.94;100069.50;6226574;23;20046;-86
2021/12/15 03:22:21;;;;;;;18.23;11.55;;;;;;;5.49;90.30;100009.59;6202821;23;20024;-85
2021/12/15 03:24:47;;;;;;;16.98;11.23;;;;;;;5.52;89.66;100014.53;6153674;23;20004;-85
2021/12/15 03:27:19;;;;;;;17.52;11.82;;;;;;;6.02;90.03;100100.06;6177672;23;20036;-85
2021/12/15 03:35:49;;;;;;;16.00;11.57;;;;;;;5.83;89.67;100073.34;6056802;23;20073;-85
2021/12/15 03:38:14;;;;;;;15.45;11.63;;;;;;;5.87;89.68;100078.13;6160670;23;20024;-85
2021/12/15 03:40:42;;;;;;;17.15;11.30;;;;;;;6.02;89.95;100099.25;6191785;23;20001;-85
2021/12/15 03:43:11;;;;;;;17.13;12.63;;;;;;;6.02;89.35;100100.06;6144244;23;20091;-84
2021/12/15 03:45:50;;;;;;;15.13;11.73;;;;;;;5.73;89.43;100057.75;6167657;23;20034;-85
2021/12/15 03:48:21;;;;;;;15.27;11.65;;;;;;;5.70;89.39;100046.72;6194527;23;20024;-85
2021/12/15 03:50:47;;;;;;;17.67;11.75;;;;;;;5.82;89.95;100072.53;6167242;23;20439;-82
2021/12/15 03:53:14;;;;;;;16.70;12.27;;;;;;;5.88;90.03;100077.09;6141473;23;20008;-84
2021/12/15 03:55:41;;;;;;;18.60;11.55;;;;;;;6.03;89.79;100099.06;6141025;23;20017;-83
2021/12/15 03:58:11;;;;;;;16.73;11.70;;;;;;;6.03;90.17;100107.00;6166564;23;20005;-84
2021/12/15 04:00:41;;;;;;;19.13;12.45;;;;;;;6.03;89.47;100108.81;6192970;23;20062;-84
2021/12/15 04:07:08;;;;;;;16.27;11.80;;;;;;;6.01;89.56;100100.25;6170863;23;20068;-84
2021/12/15 04:09:35;;;;;;;15.32;12.07;;;;;;;6.01;89.63;100100.25;6203602;23;20211;-84
2021/12/15 04:12:02;;;;;;;17.80;12.13;;;;;;;5.61;89.37;100042.53;6180194;23;20008;-84
2021/12/15 04:14:34;;;;;;;16.58;12.10;;;;;;;5.90;89.28;100076.91;6179375;23;20009;-84
2021/12/15 04:17:06;;;;;;;19.23;12.90;;;;;;;5.62;89.52;100034.41;6134382;23;20005;-85
2021/12/15 04:19:35;;;;;;;16.52;11.63;;;;;;;5.63;89.19;100045.81;6136687;23;20073;-85
2021/12/15 04:22:01;;;;;;;16.25;11.38;;;;;;;5.61;89.43;100039.88;6159601;23;20012;-85
2021/12/15 04:24:28;;;;;;;15.85;10.85;;;;;;;6.03;89.61;100111.47;6152496;23;20009;-83
2021/12/15 04:26:56;;;;;;;16.38;11.15;;;;;;;5.87;89.95;100080.75;6174698;23;20001;-84
2021/12/15 04:29:22;;;;;;;16.58;10.98;;;;;;;5.35;89.50;100006.00;6152164;23;20013;-83
2021/12/15 04:31:59;;;;;;;17.10;11.85;;;;;;;5.71;89.77;100061.59;6179021;23;20013;-83
2021/12/15 04:34:24;;;;;;;16.25;11.38;;;;;;;5.42;89.63;100008.72;6179488;23;20004;-84
2021/12/15 04:36:52;;;;;;;16.42;11.27;;;;;;;6.04;89.43;100129.03;6153424;23;20012;-84
2021/12/15 04:39:24;;;;;;;15.07;10.85;;;;;;;5.83;89.81;100083.94;6171891;23;20096;-85
2021/12/15 04:41:52;;;;;;;15.77;11.40;;;;;;;5.93;89.13;100095.91;6146855;23;20013;-85
2021/12/15 04:44:21;;;;;;;15.15;11.07;;;;;;;6.04;89.43;100123.72;6193405;23;20027;-85
2021/12/15 04:47:03;;;;;;;14.88;11.10;;;;;;;6.04;89.49;100121.09;6161345;23;20001;-83
2021/12/15 04:49:35;;;;;;;15.90;11.32;;;;;;;6.04;89.60;100119.25;6145911;23;20511;-85
2021/12/15 04:52:03;;;;;;;14.18;9.60;;;;;;;5.50;89.43;100038.56;6149061;23;20087;-83
2021/12/15 04:54:29;;;;;;;15.13;11.07;;;;;;;6.04;89.07;100134.34;6201792;23;20009;-83
2021/12/15 04:56:55;;;;;;;15.70;11.02;;;;;;;5.71;89.54;100073.00;6176350;23;20011;-82
2021/12/15 04:59:20;;;;;;;16.75;11.82;;;;;;;5.39;89.05;100028.44;6201218;23;20009;-82
2021/12/15 05:01:47;;;;;;;16.58;11.07;;;;;;;5.61;89.72;100061.91;6199673;23;20005;-82
2021/12/15 05:04:13;;;;;;;13.55;10.60;;;;;;;6.05;88.97;100130.66;6199689;23;20012;-81
2021/12/15 05:06:41;;;;;;;15.20;11.27;;;;;;;6.05;89.63;100125.34;6173726;23;20033;-82
2021/12/15 05:09:06;;;;;;;15.63;10.55;;;;;;;5.34;89.41;100014.94;6199031;23;20009;-83
2021/12/15 05:11:33;;;;;;;14.70;10.02;;;;;;;5.64;89.97;100061.50;6199229;23;20011;-82
2021/12/15 05:13:59;;;;;;;15.63;10.20;;;;;;;5.37;89.48;100024.34;6174648;23;20005;-82
2021/12/15 05:16:24;;;;;;;15.15;10.30;;;;;;;5.53;89.31;100043.47;6173976;23;20084;-83
2021/12/15 05:18:50;;;;;;;17.30;11.27;;;;;;;5.51;89.56;100050.78;6201796;23;20005;-83
2021/12/15 05:21:23;;;;;;;15.93;10.70;;;;;;;6.05;89.38;100134.13;6181006;23;20012;-81
2021/12/15 05:23:55;;;;;;;13.80;10.35;;;;;;;5.48;90.04;100040.56;6206059;23;20032;-82
2021/12/15 05:26:21;;;;;;;14.18;10.25;;;;;;;5.62;89.40;100070.66;6203755;23;20008;-83
2021/12/15 05:28:47;;;;;;;13.93;9.82;;;;;;;5.62;89.17;100066.19;6197544;23;20035;-83
2021/12/15 05:31:13;;;;;;;16.58;11.05;;;;;;;5.45;89.49;100053.34;6174397;23;20017;-84
2021/12/15 05:33:39;;;;;;;19.25;12.48;;;;;;;5.43;89.52;100058.00;6163853;23;20041;-83
2021/12/15 05:36:05;;;;;;;17.35;11.90;;;;;;;5.52;89.86;100060.38;6189819;23;20332;-83
2021/12/15 05:38:30;;;;;;;15.82;11.65;;;;;;;5.57;88.94;100073.84;6171265;23;20019;-84
2021/12/15 05:40:57;;;;;;;17.77;12.02;;;;;;;5.68;89.82;100085.81;6171613;23;20009;-83
2021/12/15 05:43:23;;;;;;;18.48;12.52;;;;;;;5.57;89.82;100076.50;6167471;23;20009;-83
2021/12/15 05:45:50;;;;;;;20.95;11.65;;;;;;;5.58;89.04;100091.41;6165825;23;20001;-83
2021/12/15 05:48:19;;;;;;;17.95;13.77;;;;;;;5.68;89.87;100105.16;6194754;23;20001;-82
2021/12/15 05:50:48;;;;;;;19.40;13.30;;;;;;;5.90;89.15;100140.47;6144673;23;20017;-82
2021/12/15 05:53:14;;;;;;;19.90;13.15;;;;;;;5.71;89.43;100112.75;6168695;23;20024;-83
2021/12/15 05:55:41;;;;;;;19.52;14.05;;;;;;;6.00;89.47;100165.69;6194852;23;20028;-83
2021/12/15 05:58:07;;;;;;;19.45;13.18;;;;;;;5.64;89.58;100106.53;6195348;23;20025;-83
2021/12/15 06:00:37;;;;;;;20.45;14.07;;;;;;;6.01;89.01;100166.50;6198088;23;20001;-84
2021/12/15 06:03:05;;;;;;;21.45;13.90;;;;;;;6.01;89.94;100164.69;6200989;23;20005;-84
2021/12/15 06:05:31;;;;;;;19.95;13.45;;;;;;;6.01;89.67;100166.50;6200731;23;20024;-83
2021/12/15 06:07:56;;;;;;;26.33;14.77;;;;;;;5.79;89.46;100135.63;6170306;23;20008;-84
2021/12/15 06:10:25;;;;;;;22.50;14.65;;;;;;;5.82;89.47;100138.75;6167928;23;20016;-83
2021/12/15 06:12:52;;;;;;;21.88;15.15;;;;;;;6.01;89.52;100179.75;6166819;23;20013;-84
2021/12/15 06:15:22;;;;;;;22.27;14.98;;;;;;;5.97;89.47;100171.34;6188966;23;20344;-83
2021/12/15 06:18:02;;;;;;;24.75;16.70;;;;;;;6.01;90.07;100193.00;6142345;23;20071;-82
2021/12/15 06:20:32;;;;;;;27.08;15.90;;;;;;;6.00;89.87;100184.25;6194094;23;20028;-82
2021/12/15 06:23:00;;;;;;;24.60;16.60;;;;;;;5.97;89.78;100181.13;6141419;23;20047;-82
2021/12/15 06:25:28;;;;;;;27.48;18.92;;;;;;;5.93;89.80;100178.03;6141229;23;20028;-82
2021/12/15 06:27:53;;;;;;;25.20;16.83;;;;;;;5.82;89.78;100162.59;6166295;23;20001;-84
2021/12/15 06:30:19;;;;;;;24.88;16.52;;;;;;;5.94;89.72;100182.31;6143570;23;20463;-85
2021/12/15 06:32:44;;;;;;;24.70;15.52;;;;;;;5.86;89.60;100163.88;6187273;23;20024;-82
2021/12/15 06:35:11;;;;;;;26.23;17.77;;;;;;;6.02;89.76;100200.78;6195954;23;20011;-84
2021/12/15 06:37:36;;;;;;;26.85;16.05;;;;;;;6.02;89.60;100195.47;6196050;23;20008;-84
2021/12/15 06:40:07;;;;;;;27.48;18.80;;;;;;;5.88;89.67;100179.59;6195509;23;20100;-83
2021/12/15 06:42:34;;;;;;;27.95;16.25;;;;;;;6.00;89.77;100200.16;6195862;23;20011;-84
2021/12/15 06:45:00;;;;;;;28.17;18.00;;;;;;;5.98;89.66;100199.47;6146524;23;20004;-83
2021/12/15 06:58:23;;;;;;;27.75;17.15;;;;;;;5.87;90.17;100201.81;6176999;23;20014;-83
2021/12/15 07:00:54;;;;;;;24.90;16.73;;;;;;;5.88;90.68;100206.91;6171060;23;20012;-83
2021/12/15 07:03:24;;;;;;;28.23;17.88;;;;;;;5.88;90.49;100206.91;6169842;23;20004;-83
2021/12/15 07:05:50;;;;;;;30.80;19.08;;;;;;;6.02;89.63;100231.75;6148378;23;20016;-83
2021/12/15 07:08:17;;;;;;;28.50;18.63;;;;;;;5.82;90.04;100189.09;6193256;23;20005;-84
2021/12/15 07:10:47;;;;;;;27.30;18.77;;;;;;;6.03;90.28;100228.09;6192254;23;20004;-82
2021/12/15 07:13:13;;;;;;;28.00;19.05;;;;;;;6.03;90.44;100220.97;6194167;23;20032;-83
2021/12/15 07:15:40;;;;;;;28.83;17.52;;;;;;;6.01;89.87;100222.16;6195465;23;20052;-83
2021/12/15 07:18:10;;;;;;;28.63;19.25;;;;;;;5.97;90.25;100220.88;6221675;23;20023;-83
2021/12/15 07:20:50;;;;;;;28.35;18.10;;;;;;;5.99;89.99;100211.75;6170762;23;20013;-83
2021/12/15 07:23:21;;;;;;;30.50;17.85;;;;;;;6.02;90.31;100221.97;6190728;23;20020;-83
2021/12/15 07:25:49;;;;;;;28.25;17.30;;;;;;;6.01;90.03;100228.28;6190828;23;20015;-83
2021/12/15 07:28:17;;;;;;;29.40;17.92;;;;;;;6.05;89.62;100231.38;6198325;23;20004;-85
2021/12/15 07:30:55;;;;;;;28.73;18.73;;;;;;;5.97;89.80;100216.41;6228307;23;20005;-85
2021/12/15 07:33:21;;;;;;;28.38;17.35;;;;;;;5.84;90.09;100200.34;6201579;23;20012;-84
2021/12/15 07:35:47;;;;;;;25.55;17.52;;;;;;;5.83;90.08;100192.56;6177874;23;20068;-84
2021/12/15 07:38:13;;;;;;;29.08;18.92;;;;;;;6.06;90.50;100227.72;6225825;23;20004;-85
2021/12/15 07:40:40;;;;;;;29.75;18.92;;;;;;;6.05;90.33;100232.19;6232096;23;20019;-84
2021/12/15 07:43:13;;;;;;;28.77;17.80;;;;;;;6.05;89.54;100232.19;6205679;23;20001;-84
2021/12/15 07:45:45;;;;;;;27.33;17.80;;;;;;;6.06;90.00;100233.03;6181696;23;20008;-83
2021/12/15 07:48:14;;;;;;;29.55;17.83;;;;;;;6.04;89.81;100238.53;6204313;23;20040;-84
2021/12/15 07:50:44;;;;;;;27.02;17.70;;;;;;;6.04;90.19;100237.69;6230032;23;20047;-84
2021/12/15 07:53:10;;;;;;;28.13;18.75;;;;;;;6.03;90.20;100236.84;6180688;23;20067;-83
2021/12/15 07:55:45;;;;;;;32.70;19.55;;;;;;;6.04;90.37;100245.63;6231021;23;20015;-83
2021/12/15 07:58:11;;;;;;;28.75;17.73;;;;;;;6.01;90.02;100241.53;6224986;23;20032;-84
2021/12/15 08:00:40;;;;;;;29.08;17.40;;;;;;;6.02;90.26;100245.84;6173222;23;20019;-84
2021/12/15 08:03:06;;;;;;;34.00;18.13;;;;;;;6.02;90.54;100240.53;6170719;23;20009;-84
2021/12/15 08:05:32;;;;;;;32.45;21.17;;;;;;;6.03;90.44;100243.97;6194226;23;20001;-83
2021/12/15 08:07:59;;;;;;;33.17;18.05;;;;;;;5.96;90.84;100237.81;6195469;23;20008;-84
2021/12/15 08:10:25;;;;;;;29.67;16.95;;;;;;;6.02;90.78;100247.66;6171801;23;20004;-84
2021/12/15 08:12:51;;;;;;;27.45;17.50;;;;;;;5.96;90.67;100238.59;6151342;23;20024;-84
2021/12/15 08:15:17;;;;;;;29.98;18.40;;;;;;;6.01;91.38;100246.00;6197355;23;20062;-82
2021/12/15 08:17:48;;;;;;;30.05;19.48;;;;;;;5.89;90.66;100227.13;6198289;23;20008;-82
2021/12/15 08:20:15;;;;;;;29.98;18.02;;;;;;;6.07;90.99;100255.06;6198904;23;20011;-86
2021/12/15 08:22:41;;;;;;;28.15;17.30;;;;;;;6.10;90.89;100249.38;6195170;23;20001;-82
2021/12/15 08:25:09;;;;;;;31.35;18.02;;;;;;;6.10;91.50;100259.97;6194334;23;20031;-84
2021/12/15 08:27:34;;;;;;;27.38;17.35;;;;;;;5.95;91.89;100229.03;6192251;23;20343;-84
2021/12/15 08:30:00;;;;;;;25.90;17.40;;;;;;;6.11;91.70;100253.66;6220183;23;20001;-85
2021/12/15 08:32:25;;;;;;;28.58;17.48;;;;;;;6.14;91.17;100253.31;6195482;23;20091;-82
2021/12/15 08:34:51;;;;;;;25.70;16.17;;;;;;;6.09;91.45;100253.03;6192406;23;20012;-87
2021/12/15 08:37:16;;;;;;;24.35;16.08;;;;;;;6.02;91.27;100237.06;6167839;23;20464;-85
2021/12/15 08:39:44;;;;;;;26.38;17.25;;;;;;;6.18;91.54;100260.69;6196118;23;20004;-87
2021/12/15 08:42:11;;;;;;;24.95;15.93;;;;;;;6.19;90.94;100265.00;6189138;23;20408;-87
2021/12/15 08:44:38;;;;;;;25.33;15.52;;;;;;;6.21;91.09;100262.97;6136085;23;20074;-86
2021/12/15 08:47:05;;;;;;;29.02;17.77;;;;;;;6.19;91.41;100266.81;6192662;23;20405;-85
2021/12/15 08:49:30;;;;;;;25.33;16.70;;;;;;;6.21;91.45;100259.50;6217537;23;20008;-85
2021/12/15 08:51:56;;;;;;;27.48;16.52;;;;;;;6.07;91.42;100241.81;6191789;23;20000;-86
2021/12/15 08:54:23;;;;;;;24.73;15.60;;;;;;;6.07;91.15;100236.50;6222540;23;20009;-86
2021/12/15 08:56:49;;;;;;;22.77;14.68;;;;;;;6.17;91.45;100252.94;6192486;23;20040;-86
2021/12/15 08:59:16;;;;;;;22.58;15.00;;;;;;;6.14;91.20;100255.97;6167056;23;20090;-85
2021/12/15 09:01:44;;;;;;;22.05;15.32;;;;;;;6.00;91.13;100233.78;6192504;23;20005;-85
2021/12/15 09:04:10;;;;;;;24.05;14.93;;;;;;;6.02;91.12;100237.88;6168185;23;20009;-86
2021/12/15 09:06:39;;;;;;;26.00;15.85;;;;;;;6.20;90.99;100248.09;6166803;23;20404;-85
2021/12/15 09:09:08;;;;;;;20.13;12.93;;;;;;;6.13;91.50;100238.41;6191719;23;20376;-85
2021/12/15 09:11:34;;;;;;;23.17;16.15;;;;;;;6.29;91.39;100265.50;6166424;23;20008;-85
2021/12/15 09:14:01;;;;;;;22.60;14.48;;;;;;;5.70;91.54;100179.94;6166013;23;20036;-86
2021/12/15 09:16:27;;;;;;;24.35;14.65;;;;;;;5.79;91.06;100178.84;6166175;23;20009;-86
2021/12/15 09:18:55;;;;;;;21.70;14.80;;;;;;;5.99;91.29;100216.22;6190201;23;20032;-86
2021/12/15 09:21:27;;;;;;;26.35;14.32;;;;;;;6.33;92.03;100260.69;6190789;23;20014;-85
2021/12/15 09:23:53;;;;;;;22.33;14.32;;;;;;;5.74;91.42;100175.13;6191130;23;20015;-86
2021/12/15 09:26:20;;;;;;;25.98;15.40;;;;;;;5.61;91.51;100143.16;6165154;23;20374;-85
2021/12/15 09:28:47;;;;;;;26.23;15.82;;;;;;;6.29;91.53;100252.25;6190254;23;20004;-86
2021/12/15 09:31:15;;;;;;;23.42;14.75;;;;;;;6.25;91.42;100250.16;6164559;23;20009;-85
2021/12/15 09:33:42;;;;;;;21.83;14.27;;;;;;;6.11;91.13;100219.22;6189550;23;20428;-86
2021/12/15 09:36:10;;;;;;;21.98;15.00;;;;;;;5.71;90.91;100156.94;6140332;23;20096;-86
2021/12/15 09:38:37;;;;;;;25.90;16.73;;;;;;;6.48;90.68;100264.09;6140544;23;20095;-86
2021/12/15 09:41:04;;;;;;;20.60;13.75;;;;;;;6.01;91.42;100190.34;6164630;23;20039;-86
2021/12/15 09:43:31;;;;;;;23.52;14.00;;;;;;;6.14;91.67;100198.44;6189471;23;20027;-86
2021/12/15 09:46:06;;;;;;;22.88;14.88;;;;;;;6.51;91.63;100259.25;6140261;23;20011;-85
2021/12/15 10:19:18;;;;;;;21.75;14.68;;;;;;;6.53;91.51;100230.69;6123510;23;20009;-86
2021/12/15 10:21:58;;;;;;;21.90;14.43;;;;;;;6.45;91.63;100214.09;6174135;23;20008;-86
2021/12/15 10:24:34;;;;;;;19.83;13.95;;;;;;;6.74;91.48;100253.78;6172006;23;20004;-86
2021/12/15 10:27:03;;;;;;;22.88;14.23;;;;;;;6.33;90.77;100186.44;6179710;23;20012;-87
2021/12/15 10:29:29;;;;;;;18.20;12.63;;;;;;;6.79;91.56;100252.19;6157608;23;20080;-86
2021/12/15 10:32:05;;;;;;;21.92;14.25;;;;;;;6.81;91.70;100249.34;6176130;23;20343;-88
2021/12/15 10:34:32;;;;;;;19.52;13.23;;;;;;;6.86;91.45;100251.44;6154485;23;20017;-88
2021/12/15 10:36:58;;;;;;;22.48;13.73;;;;;;;6.57;90.94;100200.16;6149812;23;20027;-88
2021/12/15 10:39:24;;;;;;;24.95;14.20;;;;;;;6.90;91.21;100250.06;6148672;23;20005;-88
2021/12/15 10:41:53;;;;;;;21.80;14.23;;;;;;;6.92;90.82;100250.69;6172553;23;20005;-87
2021/12/15 10:44:25;;;;;;;22.92;13.82;;;;;;;6.72;90.44;100219.47;6146474;23;20009;-87
2021/12/15 10:47:03;;;;;;;20.77;13.57;;;;;;;6.79;90.87;100233.59;6148142;23;20226;-87
2021/12/15 10:49:32;;;;;;;21.30;12.00;;;;;;;6.81;89.99;100230.78;6171904;23;20005;-86
2021/12/15 10:52:03;;;;;;;20.55;13.60;;;;;;;6.97;90.39;100251.72;6200328;23;20425;-87
2021/12/15 10:54:40;;;;;;;23.52;14.75;;;;;;;6.98;90.42;100249.91;6171620;23;20020;-87
2021/12/15 10:57:27;;;;;;;26.80;15.82;;;;;;;6.52;90.50;100175.19;6171540;23;20005;-87
2021/12/15 11:00:08;;;;;;;22.27;13.45;;;;;;;7.00;90.55;100248.72;6172160;23;20492;-87
2021/12/15 11:02:33;;;;;;;17.85;13.25;;;;;;;6.67;90.17;100192.69;6171337;23;20005;-86
2021/12/15 11:05:18;;;;;;;23.45;14.63;;;;;;;7.03;90.69;100250.16;6170660;23;19993;-86
2021/12/15 11:07:58;;;;;;;26.08;16.15;;;;;;;6.55;89.85;100167.66;6125901;23;20028;-88
2021/12/15 11:10:31;;;;;;;21.23;14.15;;;;;;;7.09;89.53;100247.56;6164866;23;20004;-86
2021/12/15 11:13:03;;;;;;;22.80;15.52;;;;;;;7.10;89.83;100245.75;6146553;23;20013;-88
2021/12/15 11:15:30;;;;;;;22.30;14.55;;;;;;;7.11;89.61;100244.72;6169506;23;20001;-88
2021/12/15 11:18:02;;;;;;;24.15;15.88;;;;;;;6.71;89.66;100193.13;6145630;23;20008;-87
2021/12/15 11:20:30;;;;;;;26.17;16.20;;;;;;;7.15;89.56;100262.72;6146505;23;20013;-87
2021/12/15 11:23:05;;;;;;;24.35;15.65;;;;;;;7.17;89.47;100258.03;6170662;23;20005;-87
2021/12/15 11:25:54;;;;;;;24.25;16.10;;;;;;;7.21;89.75;100256.63;6145972;23;20088;-88
2021/12/15 11:28:21;;;;;;;21.55;14.32;;;;;;;7.25;90.68;100259.75;6146569;23;20033;-86
2021/12/15 11:31:06;;;;;;;25.33;15.40;;;;;;;7.27;90.04;100250.56;6169331;23;20459;-87
2021/12/15 11:33:38;;;;;;;26.60;16.05;;;;;;;7.28;89.85;100243.41;6192952;23;20470;-89
2021/12/15 11:36:09;;;;;;;24.23;15.15;;;;;;;7.27;90.28;100255.88;6171008;23;20068;-87
2021/12/15 11:38:38;;;;;;;21.52;13.95;;;;;;;7.07;90.36;100215.09;6197545;23;20059;-89
2021/12/15 11:41:16;;;;;;;24.45;14.05;;;;;;;7.30;89.92;100252.00;6148832;23;20008;-87
2021/12/15 11:43:45;;;;;;;24.70;15.43;;;;;;;7.17;89.74;100218.22;6198588;23;20016;-87
2021/12/15 11:46:29;;;;;;;23.30;14.25;;;;;;;7.11;89.29;100216.34;6198998;23;20000;-87
2021/12/15 11:49:07;;;;;;;23.88;14.85;;;;;;;7.35;90.10;100236.31;6197577;23;20000;-85
2021/12/15 11:52:07;;;;;;;19.65;13.43;;;;;;;7.26;89.31;100222.38;6172032;23;20009;-86
2021/12/15 11:54:36;;;;;;;20.63;12.93;;;;;;;7.37;89.01;100235.13;6173753;23;20024;-86
2021/12/15 11:57:25;;;;;;;22.35;14.63;;;;;;;7.16;88.41;100200.66;6195857;23;20386;-87
2021/12/15 11:59:59;;;;;;;24.95;14.82;;;;;;;7.37;89.29;100232.47;6195753;23;20380;-85
2021/12/15 12:02:33;;;;;;;24.10;14.65;;;;;;;7.33;89.25;100233.88;6217600;23;20339;-87
2021/12/15 12:05:20;;;;;;;20.13;13.10;;;;;;;7.07;88.74;100183.22;6205117;23;20052;-86
2021/12/15 12:08:07;;;;;;;24.52;13.63;;;;;;;6.55;89.10;100089.97;6240379;22;20001;-86
2021/12/15 12:10:45;;;;;;;19.40;13.02;;;;;;;7.36;89.90;100225.50;6215018;22;19988;-86
2021/12/15 12:13:24;;;;;;;21.23;14.48;;;;;;;6.87;89.40;100147.75;6190635;23;20017;-86
2021/12/15 12:15:57;;;;;;;20.73;13.85;;;;;;;6.93;89.75;100156.75;6190715;23;20000;-86
2021/12/15 12:18:27;;;;;;;20.42;13.65;;;;;;;6.77;89.29;100131.34;6213954;23;19996;-87
2021/12/15 12:21:13;;;;;;;21.77;14.05;;;;;;;7.19;89.52;100194.94;6214524;23;19984;-87
2021/12/15 12:23:44;;;;;;;20.37;12.57;;;;;;;6.82;89.57;100139.53;6214416;22;20003;-86
2021/12/15 12:26:10;;;;;;;23.45;13.68;;;;;;;6.93;89.82;100162.91;6191956;23;20052;-85
2021/12/15 12:28:40;;;;;;;19.33;12.45;;;;;;;6.61;90.00;100105.09;6212122;23;20032;-86
2021/12/15 12:31:14;;;;;;;20.48;13.77;;;;;;;7.16;90.09;100198.00;6214682;23;20015;-86
2021/12/15 12:33:40;;;;;;;20.15;13.63;;;;;;;6.84;89.95;100147.31;6214502;22;20001;-85
2021/12/15 12:36:12;;;;;;;22.58;14.10;;;;;;;6.80;88.77;100125.66;6235023;22;20070;-86
2021/12/15 12:38:42;;;;;;;21.95;13.55;;;;;;;7.16;89.44;100181.25;6201866;23;20004;-87
2021/12/15 12:44:42;;;;;;;19.75;12.80;;;;;;;6.55;89.34;100089.97;6170199;22;20036;-93
2021/12/15 12:47:30;;;;;;;19.92;12.32;;;;;;;6.93;89.63;100146.97;6218517;23;20019;-93
2021/12/15 12:50:30;;;;;;;18.13;12.38;;;;;;;6.78;89.03;100125.03;6245318;23;20007;-93
2021/12/15 13:01:14;;;;;;;23.38;13.45;;;;;;;6.54;90.01;100086.47;6189492;23;20412;-89
2021/12/15 13:03:45;;;;;;;17.65;12.10;;;;;;;6.43;89.28;100070.25;6188147;23;20424;-88
2021/12/15 13:06:27;;;;;;;20.33;12.35;;;;;;;6.43;89.44;100054.34;6164232;23;20084;-89
2021/12/15 13:09:01;;;;;;;20.70;13.63;;;;;;;6.53;89.05;100070.75;6188352;23;20004;-89